createdAt,value
2019-05-11T00:02:03.547Z,100583.69
2019-05-11T00:04:32.871Z,100588.38
2019-05-11T00:07:02.490Z,100580.91
2019-05-11T00:09:31.764Z,100584.88
2019-05-11T00:12:01.083Z,100585.41
2019-05-11T00:14:30.534Z,100583.63
2019-05-11T00:16:59.812Z,100592.30
2019-05-11T00:19:29.034Z,100589.58
2019-05-11T00:21:58.556Z,100596.30
2019-05-11T00:24:29.525Z,100593.88
2019-05-11T00:26:58.833Z,100596.33
2019-05-11T00:29:28.272Z,100595.75
2019-05-11T00:31:57.531Z,100594.33
2019-05-11T00:34:26.745Z,100588.70
2019-05-11T00:36:56.179Z,100594.91
2019-05-11T00:39:25.424Z,100594.55
2019-05-11T00:41:54.731Z,100595.33
2019-05-11T00:44:24.181Z,100594.44
2019-05-11T00:46:53.430Z,100409.47
2019-05-11T00:49:22.693Z,100596.58
2019-05-11T00:51:52.182Z,100603.94
2019-05-11T00:54:21.448Z,100604.30
2019-05-11T00:56:50.653Z,100609.57
2019-05-11T00:59:22.032Z,100606.02
2019-05-11T01:01:51.091Z,100603.94
2019-05-11T01:04:20.340Z,100605.30
2019-05-11T01:06:49.850Z,100618.17
2019-05-11T01:09:19.070Z,100612.95
2019-05-11T01:11:48.278Z,100614.31
2019-05-11T01:14:17.726Z,100614.20
2019-05-11T01:16:47.056Z,100614.88
2019-05-11T01:19:16.270Z,100618.20
2019-05-11T01:21:45.731Z,100618.50
2019-05-11T01:24:15.085Z,100620.16
2019-05-11T01:26:44.361Z,100624.33
2019-05-11T01:29:13.670Z,100631.38
2019-05-11T01:31:42.929Z,100645.72
2019-05-11T01:34:12.173Z,100648.45
2019-05-11T01:36:41.632Z,100654.50
2019-05-11T01:39:10.898Z,100656.64
2019-05-11T01:41:40.447Z,100660.13
2019-05-11T01:44:09.842Z,100659.25
2019-05-11T01:46:39.095Z,100660.91
2019-05-11T01:49:08.326Z,100657.35
2019-05-11T01:51:37.643Z,100659.01
2019-05-11T01:54:06.877Z,100671.58
2019-05-11T01:56:36.095Z,100671.16
2019-05-11T01:59:05.424Z,100666.48
2019-05-11T02:01:34.705Z,100667.66
2019-05-11T02:04:04.056Z,100675.24
2019-05-11T02:06:33.751Z,100668.49
2019-05-11T02:09:03.289Z,100673.00
2019-05-11T02:11:32.544Z,100681.29
2019-05-11T02:14:01.949Z,100682.95
2019-05-11T02:16:31.214Z,100678.08
2019-05-11T02:19:00.453Z,100681.93
2019-05-11T02:21:29.848Z,100684.00
2019-05-11T02:23:59.098Z,100687.91
2019-05-11T02:26:28.444Z,100690.58
2019-05-11T02:28:57.879Z,100702.14
2019-05-11T02:31:27.133Z,100711.33
2019-05-11T02:33:56.352Z,100714.05
2019-05-11T02:36:25.769Z,100717.08
2019-05-11T02:38:57.227Z,100720.45
2019-05-11T02:41:36.197Z,100714.88
2019-05-11T02:43:57.812Z,100716.31
2019-05-11T02:46:27.077Z,100718.50
2019-05-11T02:48:56.337Z,100715.48
2019-05-11T02:51:26.567Z,100720.34
2019-05-11T02:53:56.540Z,100714.13
2019-05-11T02:56:25.735Z,100715.08
2019-05-11T02:58:55.038Z,100720.29
2019-05-11T03:01:24.306Z,100722.36
2019-05-11T03:03:53.511Z,100725.39
2019-05-11T03:06:22.903Z,100732.73
2019-05-11T03:08:52.237Z,100736.52
2019-05-11T03:11:21.499Z,100734.04
2019-05-11T03:13:50.789Z,100739.91
2019-05-11T03:16:20.036Z,100742.64
2019-05-11T03:18:49.274Z,100748.87
2019-05-11T03:21:18.663Z,100752.72
2019-05-11T03:23:47.926Z,100752.53
2019-05-11T03:26:17.208Z,100754.19
2019-05-11T03:28:46.629Z,100756.86
2019-05-11T03:31:17.673Z,100761.73
2019-05-11T03:33:47.063Z,100758.28
2019-05-11T03:36:16.281Z,100756.22
2019-05-11T03:38:45.547Z,100757.94
2019-05-11T03:41:15.122Z,100756.69
2019-05-11T03:43:44.342Z,100761.08
2019-05-11T03:46:13.579Z,100763.10
2019-05-11T03:48:42.904Z,100767.02
2019-05-11T03:51:12.221Z,100768.92
2019-05-11T03:53:41.558Z,100767.73
2019-05-11T03:56:10.993Z,100767.13
2019-05-11T03:58:40.212Z,100768.20
2019-05-11T04:01:09.626Z,100767.42
2019-05-11T04:03:39.132Z,100767.25
2019-05-11T04:06:08.353Z,100767.02
2019-05-11T04:08:37.604Z,100765.77
2019-05-11T04:11:07.023Z,100772.23
2019-05-11T04:13:36.250Z,100768.97
2019-05-11T04:16:05.523Z,100773.00
2019-05-11T04:18:34.831Z,100774.67
2019-05-11T04:21:04.043Z,100784.27
2019-05-11T04:23:33.286Z,100791.01
2019-05-11T04:26:02.825Z,100792.31
2019-05-11T04:28:32.055Z,100791.59
2019-05-11T04:31:01.396Z,100795.56
2019-05-11T04:33:33.129Z,100799.89
2019-05-11T04:36:01.804Z,100797.92
2019-05-11T04:38:31.053Z,100801.71
2019-05-11T04:41:00.456Z,100797.45
2019-05-11T04:43:29.705Z,100801.26
2019-05-11T04:45:59.000Z,100797.12
2019-05-11T04:48:28.352Z,100796.13
2019-05-11T04:50:57.568Z,100795.01
2019-05-11T04:53:26.812Z,100798.22
2019-05-11T04:55:56.714Z,100797.05
2019-05-11T04:58:25.909Z,100805.77
2019-05-11T05:00:55.144Z,100808.91
2019-05-11T05:03:39.862Z,100809.32
2019-05-11T05:05:55.523Z,100803.84
2019-05-11T05:08:26.449Z,100793.95
2019-05-11T05:10:58.446Z,100800.40
2019-05-11T05:13:29.375Z,100794.19
2019-05-11T05:15:58.056Z,100797.28
2019-05-11T05:18:27.262Z,100795.18
2019-05-11T05:20:56.711Z,100787.66
2019-05-11T05:23:25.954Z,100782.16
2019-05-11T05:25:55.277Z,100772.58
2019-05-11T05:28:24.743Z,100774.58
2019-05-11T05:30:54.099Z,100774.15
2019-05-11T05:33:23.463Z,100767.56
2019-05-11T05:35:52.831Z,100762.71
2019-05-11T05:38:22.087Z,100759.91
2019-05-11T05:40:51.358Z,100753.23
2019-05-11T05:43:27.374Z,100757.72
2019-05-11T05:45:51.845Z,100626.92
2019-05-11T05:48:21.193Z,100753.43
2019-05-11T05:50:50.402Z,100753.30
2019-05-11T05:53:19.667Z,100744.39
2019-05-11T05:55:48.997Z,100740.30
2019-05-11T05:58:18.224Z,100729.44
2019-05-11T06:00:47.474Z,100732.88
2019-05-11T06:03:16.897Z,100733.91
2019-05-11T06:05:46.234Z,100740.33
2019-05-11T06:08:15.525Z,100743.27
2019-05-11T06:10:45.097Z,100744.90
2019-05-11T06:13:14.449Z,100753.62
2019-05-11T06:15:43.742Z,100748.23
2019-05-11T06:18:13.144Z,100754.07
2019-05-11T06:20:42.377Z,100760.55
2019-05-11T06:23:11.637Z,100758.98
2019-05-11T06:25:40.968Z,100757.51
2019-05-11T06:28:10.236Z,100763.34
2019-05-11T06:30:39.531Z,100764.22
2019-05-11T06:33:08.914Z,100766.42
2019-05-11T06:35:38.241Z,100768.70
2019-05-11T06:38:07.505Z,100769.13
2019-05-11T06:40:37.002Z,100772.09
2019-05-11T06:43:06.356Z,100780.04
2019-05-11T06:45:35.971Z,100778.42
2019-05-11T06:48:05.344Z,100773.86
2019-05-11T06:50:34.569Z,100772.31
2019-05-11T06:53:03.870Z,100773.31
2019-05-11T06:55:33.228Z,100775.86
2019-05-11T06:58:02.447Z,100772.73
2019-05-11T07:00:31.710Z,100775.94
2019-05-11T07:03:01.109Z,100780.55
2019-05-11T07:05:30.344Z,100780.03
2019-05-11T07:07:59.599Z,100784.21
2019-05-11T07:10:28.999Z,100780.23
2019-05-11T07:12:58.221Z,100782.40
2019-05-11T07:15:27.543Z,100777.13
2019-05-11T07:17:56.932Z,100779.02
2019-05-11T07:20:26.226Z,100778.07
2019-05-11T07:22:55.673Z,100775.81
2019-05-11T07:25:24.963Z,100775.12
2019-05-11T07:27:54.209Z,100769.36
2019-05-11T07:30:23.500Z,100763.37
2019-05-11T07:32:52.913Z,100768.56
2019-05-11T07:35:22.124Z,100766.50
2019-05-11T07:37:51.586Z,100765.57
2019-05-11T07:40:20.961Z,100757.91
2019-05-11T07:42:50.173Z,100754.14
2019-05-11T07:45:19.514Z,100740.50
2019-05-11T07:47:48.827Z,100753.05
2019-05-11T07:50:18.987Z,100742.46
2019-05-11T07:52:48.505Z,100743.52
2019-05-11T07:55:19.022Z,100745.67
2019-05-11T07:57:48.433Z,100756.04
2019-05-11T08:00:18.759Z,100746.87
2019-05-11T08:02:48.454Z,100738.41
2019-05-11T08:05:18.140Z,100740.20
2019-05-11T08:07:48.289Z,100739.88
2019-05-11T08:10:18.554Z,100738.13
2019-05-11T08:12:48.330Z,100742.46
2019-05-11T08:15:18.507Z,100737.48
2019-05-11T08:17:49.024Z,100740.02
2019-05-11T08:20:18.895Z,100742.62
2019-05-11T08:22:48.429Z,100741.95
2019-05-11T08:25:18.317Z,100746.35
2019-05-11T08:27:48.494Z,100747.28
2019-05-11T08:30:18.914Z,100744.78
2019-05-11T08:32:49.325Z,100747.95
2019-05-11T08:35:19.498Z,100750.34
2019-05-11T08:37:49.050Z,100757.52
2019-05-11T08:40:19.374Z,100763.17
2019-05-11T08:42:48.601Z,100765.26
2019-05-11T08:45:24.732Z,100770.61
2019-05-11T08:47:52.188Z,100765.81
2019-05-11T08:50:22.791Z,100759.06
2019-05-11T08:52:52.428Z,100747.55
2019-05-11T08:55:21.744Z,100751.80
2019-05-11T08:57:51.004Z,100750.80
2019-05-11T09:00:20.412Z,100752.16
2019-05-11T09:02:50.684Z,100754.75
2019-05-11T09:05:20.553Z,100745.79
2019-05-11T09:07:49.968Z,100754.33
2019-05-11T09:10:19.296Z,100755.18
2019-05-11T09:12:49.028Z,100749.22
2019-05-11T09:15:32.329Z,100749.88
2019-05-11T09:17:49.736Z,100755.34
2019-05-11T09:20:19.247Z,100759.37
2019-05-11T09:22:48.715Z,100758.75
2019-05-11T09:25:18.473Z,100760.45
2019-05-11T09:27:48.528Z,100754.97
2019-05-11T09:30:18.684Z,100762.78
2019-05-11T09:32:47.997Z,100755.11
2019-05-11T09:35:18.947Z,100755.34
2019-05-11T09:37:48.636Z,100757.14
2019-05-11T09:40:18.519Z,100755.37
2019-05-11T09:42:48.158Z,100755.19
2019-05-11T09:45:18.725Z,100755.27
2019-05-11T09:47:48.351Z,100750.80
2019-05-11T09:50:19.103Z,100742.03
2019-05-11T09:52:49.128Z,100739.88
2019-05-11T09:55:19.273Z,100736.02
2019-05-11T09:57:48.917Z,100743.57
2019-05-11T10:00:18.862Z,100736.23
2019-05-11T10:02:48.946Z,100735.01
2019-05-11T10:05:19.135Z,100733.64
2019-05-11T10:07:48.779Z,100732.55
2019-05-11T10:10:18.874Z,100726.53
2019-05-11T10:12:48.972Z,100731.42
2019-05-11T10:15:20.420Z,100731.75
2019-05-11T10:17:49.665Z,100730.18
2019-05-11T10:20:19.091Z,100724.82
2019-05-11T10:22:48.817Z,100727.50
2019-05-11T10:25:18.438Z,100730.45
2019-05-11T10:27:50.918Z,100721.83
2019-05-11T10:30:21.164Z,100726.27
2019-05-11T10:32:50.398Z,100725.39
2019-05-11T10:35:19.932Z,100726.48
2019-05-11T10:37:49.372Z,100725.35
2019-05-11T10:40:19.267Z,100726.56
2019-05-11T10:42:50.483Z,100728.38
2019-05-11T10:45:20.046Z,100724.09
2019-05-11T10:47:49.337Z,100727.82
2019-05-11T10:50:19.116Z,100718.23
2019-05-11T10:52:48.599Z,100718.95
2019-05-11T10:55:19.420Z,100725.72
2019-05-11T10:57:49.247Z,100721.91
2019-05-11T11:00:19.257Z,100725.61
2019-05-11T11:02:48.510Z,100729.69
2019-05-11T11:05:18.832Z,100736.81
2019-05-11T11:07:48.705Z,100734.33
2019-05-11T11:10:18.399Z,100733.70
2019-05-11T11:12:48.985Z,100733.55
2019-05-11T11:15:18.519Z,100737.12
2019-05-11T11:17:48.569Z,100736.34
2019-05-11T11:20:18.823Z,100745.59
2019-05-11T11:22:50.449Z,100747.70
2019-05-11T11:25:19.768Z,100747.42
2019-05-11T11:27:49.044Z,100741.37
2019-05-11T11:30:19.410Z,100745.84
2019-05-11T11:32:48.895Z,100741.02
2019-05-11T11:35:18.870Z,100749.95
2019-05-11T11:37:48.365Z,100749.94
2019-05-11T11:40:18.128Z,100746.34
2019-05-11T11:42:47.924Z,100744.08
2019-05-11T11:45:18.439Z,100749.44
2019-05-11T11:47:49.336Z,100749.95
2019-05-11T11:50:18.811Z,100748.16
2019-05-11T11:52:48.038Z,100745.19
2019-05-11T11:55:18.626Z,100746.59
2019-05-11T11:57:49.695Z,100747.59
2019-05-11T12:00:19.988Z,100744.17
2019-05-11T12:02:49.464Z,100742.58
2019-05-11T12:05:18.791Z,100749.53
2019-05-11T12:07:49.057Z,100748.78
2019-05-11T12:10:20.110Z,100751.44
2019-05-11T12:12:49.472Z,100747.84
2019-05-11T12:15:18.684Z,100755.83
2019-05-11T12:17:48.383Z,100756.73
2019-05-11T12:20:18.439Z,100749.66
2019-05-11T12:22:47.826Z,100749.64
2019-05-11T12:25:18.522Z,100751.84
2019-05-11T12:27:49.004Z,100754.49
2019-05-11T12:30:18.719Z,100751.84
2019-05-11T12:32:49.935Z,100750.08
2019-05-11T12:35:19.604Z,100750.51
2019-05-11T12:37:48.815Z,100749.20
2019-05-11T12:40:18.928Z,100750.95
2019-05-11T12:42:49.065Z,100757.97
2019-05-11T12:45:18.728Z,100755.66
2019-05-11T12:47:48.233Z,100752.95
2019-05-11T12:50:18.773Z,100748.44
2019-05-11T12:52:48.199Z,100743.98
2019-05-11T12:55:19.861Z,100743.86
2019-05-11T12:57:49.205Z,100739.74
2019-05-11T13:00:20.093Z,100739.63
2019-05-11T13:02:49.477Z,100739.52
2019-05-11T13:05:18.795Z,100738.67
2019-05-11T13:07:48.475Z,100737.89
2019-05-11T13:10:18.134Z,100744.19
2019-05-11T13:12:49.257Z,100742.98
2019-05-11T13:15:18.691Z,100743.53
2019-05-11T13:17:49.164Z,100745.34
2019-05-11T13:20:18.552Z,100744.11
2019-05-11T13:22:48.908Z,100747.34
2019-05-11T13:25:18.926Z,100744.76
2019-05-11T13:27:49.138Z,100746.98
2019-05-11T13:30:19.158Z,100747.44
2019-05-11T13:32:49.148Z,100748.33
2019-05-11T13:35:18.568Z,100748.37
2019-05-11T13:37:48.091Z,100757.64
2019-05-11T13:40:18.404Z,100758.10
2019-05-11T13:42:49.001Z,100759.44
2019-05-11T13:45:18.574Z,100762.97
2019-05-11T13:47:55.200Z,100767.30
2019-05-11T13:50:18.813Z,100765.00
2019-05-11T13:52:48.211Z,100771.95
2019-05-11T13:55:18.196Z,100779.75
2019-05-11T13:57:48.544Z,100778.25
2019-05-11T14:00:18.248Z,100783.37
2019-05-11T14:02:48.504Z,100783.61
2019-05-11T14:05:18.205Z,100786.94
2019-05-11T14:07:48.315Z,100778.88
2019-05-11T14:10:18.309Z,100771.29
2019-05-11T14:12:47.867Z,100776.00
2019-05-11T14:15:19.121Z,100769.65
2019-05-11T14:17:53.096Z,100776.13
2019-05-11T14:20:19.858Z,100774.31
2019-05-11T14:22:49.097Z,100771.61
2019-05-11T14:25:18.834Z,100772.94
2019-05-11T14:27:48.580Z,100778.24
2019-05-11T14:30:19.132Z,100765.02
2019-05-11T14:32:48.582Z,100782.67
2019-05-11T14:35:18.868Z,100782.67
2019-05-11T14:37:48.731Z,100784.05
2019-05-11T14:40:18.259Z,100784.44
2019-05-11T14:42:48.961Z,100788.83
2019-05-11T14:45:18.997Z,100787.47
2019-05-11T14:47:48.558Z,100797.45
2019-05-11T14:50:18.909Z,100803.88
2019-05-11T14:52:49.098Z,100805.11
2019-05-11T14:55:18.905Z,100813.45
2019-05-11T14:57:48.680Z,100813.06
2019-05-11T15:00:19.407Z,100813.00
2019-05-11T15:02:50.019Z,100803.46
2019-05-11T15:05:21.009Z,100803.46
2019-05-11T15:07:52.742Z,100813.07
2019-05-11T15:10:21.935Z,100813.07
2019-05-11T15:12:51.393Z,100811.83
2019-05-11T15:15:20.710Z,100806.58
2019-05-11T15:17:49.946Z,100811.45
2019-05-11T15:20:19.580Z,100811.45
2019-05-11T15:22:49.175Z,100804.46
2019-05-11T15:25:20.088Z,100814.08
2019-05-11T15:27:49.850Z,100824.59
2019-05-11T15:30:20.690Z,100824.59
2019-05-11T15:32:50.023Z,100817.29
2019-05-11T15:35:19.481Z,100825.22
2019-05-11T15:37:48.858Z,100825.22
2019-05-11T15:40:19.549Z,100835.75
2019-05-11T15:42:49.037Z,100835.23
2019-05-11T15:45:19.922Z,100832.92
2019-05-11T15:47:49.269Z,100837.69
2019-05-11T15:50:19.577Z,100842.04
2019-05-11T15:52:49.162Z,100845.05
2019-05-11T15:55:21.046Z,100845.05
2019-05-11T15:57:50.375Z,100843.70
2019-05-11T16:00:19.898Z,100843.23
2019-05-11T16:02:49.558Z,100841.42
2019-05-11T16:05:19.192Z,100847.09
2019-05-11T16:07:49.201Z,100849.75
2019-05-11T16:10:19.344Z,100856.80
2019-05-11T16:12:49.048Z,100855.26
2019-05-11T16:15:19.642Z,100849.67
2019-05-11T16:17:50.017Z,100850.75
2019-05-11T16:20:19.697Z,100846.20
2019-05-11T16:22:48.955Z,100851.31
2019-05-11T16:25:19.745Z,100854.25
2019-05-11T16:27:49.397Z,100854.44
2019-05-11T16:30:21.759Z,100862.98
2019-05-11T16:32:49.863Z,100870.74
2019-05-11T16:35:19.407Z,100871.47
2019-05-11T16:37:48.962Z,100870.38
2019-05-11T16:40:20.897Z,100879.84
2019-05-11T16:42:49.478Z,100870.46
2019-05-11T16:45:19.508Z,100869.11
2019-05-11T16:47:49.450Z,100870.86
2019-05-11T16:50:19.190Z,100866.48
2019-05-11T16:52:48.650Z,100867.37
2019-05-11T16:55:18.557Z,100868.69
2019-05-11T16:57:48.805Z,100863.89
2019-05-11T17:00:19.797Z,100866.63
2019-05-11T17:02:49.420Z,100858.02
2019-05-11T17:05:26.588Z,100859.50
2019-05-11T17:07:49.857Z,100856.64
2019-05-11T17:10:19.264Z,100856.80
2019-05-11T17:12:49.132Z,100862.56
2019-05-11T17:15:19.066Z,100868.28
2019-05-11T17:17:49.158Z,100872.25
2019-05-11T17:20:19.236Z,100871.44
2019-05-11T17:22:53.802Z,100868.86
2019-05-11T17:25:22.266Z,100872.88
2019-05-11T17:27:51.595Z,100872.75
2019-05-11T17:30:21.445Z,100879.06
2019-05-11T17:32:50.997Z,100871.63
2019-05-11T17:35:20.277Z,100867.69
2019-05-11T17:37:49.491Z,100872.65
2019-05-11T17:40:23.074Z,100873.77
2019-05-11T17:42:53.381Z,100866.55
2019-05-11T17:45:21.271Z,100867.98
2019-05-11T17:47:50.545Z,100869.52
2019-05-11T17:50:19.748Z,100866.08
2019-05-11T17:52:49.216Z,100870.89
2019-05-11T17:55:18.849Z,100859.45
2019-05-11T17:57:49.499Z,100862.05
2019-05-11T18:00:20.206Z,100869.91
2019-05-11T18:02:49.819Z,100873.77
2019-05-11T18:05:19.081Z,100878.02
2019-05-11T18:07:48.400Z,100887.86
2019-05-11T18:10:20.342Z,100884.16
2019-05-11T18:12:49.664Z,100884.84
2019-05-11T18:15:19.224Z,100892.86
2019-05-11T18:17:49.189Z,100894.00
2019-05-11T18:20:21.649Z,100894.82
2019-05-11T18:22:50.833Z,100894.36
2019-05-11T18:25:20.312Z,100898.77
2019-05-11T18:27:49.874Z,100905.69
2019-05-11T18:30:19.191Z,100909.92
2019-05-11T18:32:49.174Z,100910.27
2019-05-11T18:35:19.739Z,100916.30
2019-05-11T18:37:49.350Z,100914.88
2019-05-11T18:40:19.150Z,100918.75
2019-05-11T18:42:49.207Z,100916.48
2019-05-11T18:45:19.457Z,100920.77
2019-05-11T18:47:49.476Z,100923.86
2019-05-11T18:50:30.067Z,100920.77
2019-05-11T18:52:50.332Z,100921.63
2019-05-11T18:55:19.650Z,100927.23
2019-05-11T18:57:49.531Z,100928.50
2019-05-11T19:00:20.274Z,100935.07
2019-05-11T19:02:49.939Z,100940.78
2019-05-11T19:05:19.529Z,100930.23
2019-05-11T19:07:48.961Z,100935.84
2019-05-11T19:10:18.243Z,100941.56
2019-05-11T19:12:48.755Z,100938.51
2019-05-11T19:15:19.333Z,100934.53
2019-05-11T19:17:49.337Z,100933.25
2019-05-11T19:20:19.247Z,100931.44
2019-05-11T19:22:48.600Z,100927.50
2019-05-11T19:25:18.372Z,100925.69
2019-05-11T19:27:50.227Z,100921.25
2019-05-11T19:30:20.121Z,100926.08
2019-05-11T19:32:49.483Z,100921.25
2019-05-11T19:35:21.139Z,100922.52
2019-05-11T19:37:49.711Z,100922.41
2019-05-11T19:40:19.170Z,100924.48
2019-05-11T19:42:55.105Z,100925.72
2019-05-11T19:45:24.871Z,100921.67
2019-05-11T19:47:54.061Z,100929.08
2019-05-11T19:50:23.309Z,100931.66
2019-05-11T19:52:52.944Z,100924.48
2019-05-11T19:55:22.237Z,100930.42
2019-05-11T19:57:51.468Z,100929.36
2019-05-11T20:00:20.814Z,100927.50
2019-05-11T20:02:50.036Z,100930.47
2019-05-11T20:05:19.268Z,100929.88
2019-05-11T20:07:49.135Z,100927.55
2019-05-11T20:10:19.147Z,100931.36
2019-05-11T20:12:49.244Z,100924.72
2019-05-11T20:15:19.277Z,100932.04
2019-05-11T20:17:49.148Z,100930.47
2019-05-11T20:20:18.939Z,100929.92
2019-05-11T20:22:48.762Z,100933.30
2019-05-11T20:25:19.303Z,100936.21
2019-05-11T20:27:49.343Z,100932.61
2019-05-11T20:30:19.519Z,100943.02
2019-05-11T20:32:49.476Z,100937.21
2019-05-11T20:35:21.893Z,100937.54
2019-05-11T20:37:51.147Z,100934.41
2019-05-11T20:40:20.362Z,100934.83
2019-05-11T20:42:49.793Z,100937.27
2019-05-11T20:45:19.169Z,100937.22
2019-05-11T20:47:48.877Z,100946.34
2019-05-11T20:50:18.883Z,100947.98
2019-05-11T20:52:48.485Z,100944.84
2019-05-11T20:55:18.398Z,100940.86
2019-05-11T20:57:48.712Z,100948.26
2019-05-11T21:00:18.796Z,100950.78
2019-05-11T21:02:48.831Z,100954.63
2019-05-11T21:05:18.930Z,100947.50
2019-05-11T21:07:48.242Z,100955.74
2019-05-11T21:10:18.448Z,100958.23
2019-05-11T21:12:47.756Z,100956.88
2019-05-11T21:15:17.611Z,100960.38
2019-05-11T21:17:48.203Z,100962.91
2019-05-11T21:20:18.286Z,100961.50
2019-05-11T21:22:48.700Z,100961.45
2019-05-11T21:25:18.336Z,100963.18
2019-05-11T21:27:49.336Z,100968.05
2019-05-11T21:30:19.112Z,100962.34
2019-05-11T21:32:48.521Z,100969.36
2019-05-11T21:35:19.253Z,100968.98
2019-05-11T21:37:48.905Z,100971.28
2019-05-11T21:40:19.089Z,100974.84
2019-05-11T21:42:48.318Z,100975.86
2019-05-11T21:45:18.320Z,100974.55
2019-05-11T21:47:49.038Z,100983.72
2019-05-11T21:50:19.225Z,100978.95
2019-05-11T21:52:48.724Z,100983.77
2019-05-11T21:55:18.241Z,100988.59
2019-05-11T21:57:49.687Z,100987.70
2019-05-11T22:00:19.053Z,100985.50
2019-05-11T22:02:49.985Z,100993.05
2019-05-11T22:05:20.829Z,100998.38
2019-05-11T22:07:50.285Z,100995.29
2019-05-11T22:10:20.014Z,101003.11
2019-05-11T22:12:49.311Z,100996.60
2019-05-11T22:15:19.150Z,100999.64
2019-05-11T22:17:48.375Z,100994.41
2019-05-11T22:20:18.345Z,101000.48
2019-05-11T22:22:48.210Z,100992.72
2019-05-11T22:25:18.342Z,100999.74
2019-05-11T22:27:48.765Z,100993.84
2019-05-11T22:30:18.924Z,101004.69
2019-05-11T22:32:48.159Z,101007.78
2019-05-11T22:35:18.288Z,101008.77
2019-05-11T22:37:49.038Z,101008.81
2019-05-11T22:40:18.742Z,101015.00
2019-05-11T22:42:47.953Z,101021.13
2019-05-11T22:45:18.782Z,101019.77
2019-05-11T22:47:48.499Z,101030.63
2019-05-11T22:50:18.715Z,101031.41
2019-05-11T22:52:48.637Z,101032.67
2019-05-11T22:55:18.930Z,101026.92
2019-05-11T22:57:48.622Z,101035.06
2019-05-11T23:00:21.838Z,101030.09
2019-05-11T23:02:51.101Z,101032.09
2019-05-11T23:05:20.329Z,101029.06
2019-05-11T23:07:49.756Z,101032.27
2019-05-11T23:10:18.960Z,101025.51
2019-05-11T23:12:48.396Z,101034.05
2019-05-11T23:15:19.457Z,101031.58
2019-05-11T23:17:48.729Z,101029.33
2019-05-11T23:20:18.502Z,101040.69
2019-05-11T23:22:56.980Z,101034.62
2019-05-11T23:25:19.524Z,101035.45
2019-05-11T23:27:49.054Z,101033.09
2019-05-11T23:30:20.073Z,101039.06
2019-05-11T23:32:50.003Z,101041.09
2019-05-11T23:35:19.384Z,101044.03
2019-05-11T23:37:49.812Z,101047.42
2019-05-11T23:40:20.166Z,101038.62
2019-05-11T23:42:49.554Z,101035.06
2019-05-11T23:45:20.295Z,101032.45
2019-05-11T23:47:49.633Z,101035.48
2019-05-11T23:50:19.517Z,101036.73
2019-05-11T23:53:04.200Z,101042.39
2019-05-11T23:55:20.090Z,101040.97
2019-05-11T23:57:49.419Z,101049.59
